createdAt,value
2023-02-18T00:01:56.502Z,8.20
2023-02-18T00:04:24.753Z,8.22
2023-02-18T00:06:53.364Z,8.74
2023-02-18T00:09:21.482Z,8.74
2023-02-18T00:11:50.024Z,8.52
2023-02-18T00:14:19.025Z,8.71
2023-02-18T00:16:47.310Z,8.50
2023-02-18T00:19:19.846Z,8.74
2023-02-18T00:21:48.723Z,8.69
2023-02-18T00:24:17.331Z,8.65
2023-02-18T00:26:46.315Z,8.53
2023-02-18T00:29:14.920Z,8.30
2023-02-18T00:31:44.190Z,8.43
2023-02-18T00:34:14.489Z,8.42
2023-02-18T00:36:43.391Z,8.27
2023-02-18T00:39:13.511Z,7.97
2023-02-18T00:41:42.880Z,7.81
2023-02-18T00:44:13.052Z,8.24
2023-02-18T00:46:41.798Z,8.17
2023-02-18T00:49:10.740Z,7.83
2023-02-18T00:51:39.240Z,8.11
2023-02-18T00:54:07.620Z,7.20
2023-02-18T00:56:38.080Z,8.01
2023-02-18T00:59:06.640Z,8.05
2023-02-18T01:01:36.064Z,8.08
2023-02-18T01:04:04.606Z,8.17
2023-02-18T01:06:33.799Z,7.99
2023-02-18T01:09:05.649Z,8.18
2023-02-18T01:11:34.177Z,8.21
2023-02-18T01:14:02.373Z,7.92
2023-02-18T01:16:31.154Z,8.22
2023-02-18T01:18:59.788Z,8.19
2023-02-18T01:21:28.916Z,7.88
2023-02-18T01:23:58.622Z,8.02
2023-02-18T01:26:26.791Z,7.89
2023-02-18T01:28:54.943Z,7.63
2023-02-18T01:31:23.275Z,7.51
2023-02-18T01:33:52.483Z,7.47
2023-02-18T01:36:22.216Z,7.57
2023-02-18T01:38:50.704Z,7.51
2023-02-18T01:41:18.820Z,7.19
2023-02-18T01:43:49.785Z,7.45
2023-02-18T01:46:22.413Z,7.25
2023-02-18T01:49:00.952Z,7.49
2023-02-18T01:51:43.867Z,7.48
2023-02-18T01:54:29.884Z,7.44
2023-02-18T01:57:06.298Z,7.38
2023-02-18T02:00:13.760Z,7.35
2023-02-18T02:02:51.841Z,7.29
2023-02-18T02:05:22.172Z,7.21
2023-02-18T02:07:54.619Z,6.99
2023-02-18T02:10:23.152Z,7.18
2023-02-18T02:13:30.017Z,6.84
2023-02-18T02:16:12.998Z,7.36
2023-02-18T02:19:12.704Z,7.34
2023-02-18T02:23:01.634Z,7.31
2023-02-18T02:25:39.489Z,7.24
2023-02-18T02:28:13.172Z,7.07
2023-02-18T02:30:58.693Z,7.08
2023-02-18T02:33:52.644Z,7.01
2023-02-18T02:36:45.335Z,6.64
2023-02-18T02:39:54.231Z,6.78
2023-02-18T02:42:53.159Z,6.74
2023-02-18T02:45:48.372Z,6.70
2023-02-18T02:48:45.895Z,6.59
2023-02-18T02:51:20.073Z,6.68
2023-02-18T02:53:48.776Z,6.65
2023-02-18T02:56:23.972Z,6.39
2023-02-18T02:59:08.110Z,6.73
2023-02-18T03:01:55.844Z,6.67
2023-02-18T03:04:39.629Z,6.69
2023-02-18T03:08:04.663Z,6.54
2023-02-18T03:11:04.792Z,6.52
2023-02-18T03:13:53.056Z,6.44
2023-02-18T03:17:04.783Z,6.08
2023-02-18T03:19:42.817Z,6.11
2023-02-18T03:22:30.498Z,6.35
2023-02-18T03:25:02.925Z,6.30
2023-02-18T03:27:53.927Z,6.19
2023-02-18T03:30:37.137Z,6.28
2023-02-18T03:33:09.924Z,5.97
2023-02-18T03:35:39.625Z,6.21
2023-02-18T03:38:41.069Z,5.92
2023-02-18T03:41:09.527Z,6.19
2023-02-18T03:43:49.126Z,5.16
2023-02-18T03:46:17.406Z,5.77
2023-02-18T03:48:46.110Z,5.76
2023-02-18T03:51:15.790Z,5.67
2023-02-18T03:53:44.276Z,5.90
2023-02-18T03:56:15.801Z,6.05
2023-02-18T03:58:44.285Z,5.96
2023-02-18T04:01:12.626Z,5.84
2023-02-18T04:03:40.931Z,5.76
2023-02-18T04:06:09.877Z,5.70
2023-02-18T04:08:38.282Z,5.64
2023-02-18T04:11:06.569Z,5.60
2023-02-18T04:13:34.729Z,5.56
2023-02-18T04:16:02.748Z,5.87
2023-02-18T04:18:30.707Z,5.84
2023-02-18T04:20:59.296Z,5.89
2023-02-18T04:23:28.135Z,5.41
2023-02-18T04:25:56.166Z,5.88
2023-02-18T04:28:24.283Z,5.75
2023-02-18T04:30:52.227Z,5.69
2023-02-18T04:33:20.609Z,5.54
2023-02-18T04:35:48.645Z,5.80
2023-02-18T04:38:16.877Z,5.74
2023-02-18T04:40:45.907Z,5.74
2023-02-18T04:43:13.930Z,5.71
2023-02-18T04:45:41.881Z,5.73
2023-02-18T04:48:09.877Z,5.41
2023-02-18T04:50:39.194Z,5.60
2023-02-18T04:53:07.114Z,5.31
2023-02-18T04:55:37.535Z,5.51
2023-02-18T04:58:05.781Z,5.38
2023-02-18T05:00:34.010Z,5.35
2023-02-18T05:03:01.985Z,5.22
2023-02-18T05:05:29.942Z,5.20
2023-02-18T05:07:58.073Z,5.07
2023-02-18T05:10:26.119Z,5.16
2023-02-18T05:12:54.137Z,5.03
2023-02-18T05:15:22.037Z,5.15
2023-02-18T05:17:50.117Z,5.03
2023-02-18T05:20:18.189Z,4.83
2023-02-18T05:22:46.857Z,4.94
2023-02-18T05:25:14.909Z,4.70
2023-02-18T05:27:43.432Z,5.00
2023-02-18T05:30:11.896Z,4.90
2023-02-18T05:32:40.068Z,4.88
2023-02-18T05:35:08.794Z,4.51
2023-02-18T05:37:39.388Z,4.97
2023-02-18T05:40:08.217Z,4.48
2023-02-18T05:42:37.401Z,4.90
2023-02-18T05:45:05.969Z,4.84
2023-02-18T05:47:34.068Z,4.88
2023-02-18T05:50:02.503Z,5.02
2023-02-18T05:52:30.547Z,4.74
2023-02-18T05:54:58.526Z,5.04
2023-02-18T05:57:26.553Z,5.16
2023-02-18T05:59:54.816Z,5.01
2023-02-18T06:02:23.175Z,5.16
2023-02-18T06:04:51.309Z,5.02
2023-02-18T06:07:20.778Z,5.09
2023-02-18T06:09:49.169Z,5.30
2023-02-18T06:12:17.649Z,5.31
2023-02-18T06:14:46.303Z,5.37
2023-02-18T06:17:15.604Z,5.42
2023-02-18T06:19:44.958Z,5.43
2023-02-18T06:22:14.198Z,5.45
2023-02-18T06:24:42.519Z,5.47
2023-02-18T06:27:11.302Z,5.47
2023-02-18T06:29:39.762Z,5.19
2023-02-18T06:32:08.487Z,5.55
2023-02-18T06:34:37.421Z,5.61
2023-02-18T06:37:06.375Z,5.58
2023-02-18T06:39:34.844Z,5.65
2023-02-18T06:42:03.629Z,5.67
2023-02-18T06:44:32.123Z,5.76
2023-02-18T06:47:00.873Z,5.44
2023-02-18T06:49:30.641Z,5.80
2023-02-18T06:51:59.187Z,5.80
2023-02-18T06:54:28.204Z,5.70
2023-02-18T06:56:58.843Z,5.69
2023-02-18T06:59:27.385Z,5.50
2023-02-18T07:01:56.030Z,5.64
2023-02-18T07:04:24.078Z,5.64
2023-02-18T07:06:51.991Z,5.82
2023-02-18T07:09:20.608Z,5.87
2023-02-18T07:11:51.850Z,5.79
2023-02-18T07:14:20.199Z,5.52
2023-02-18T07:16:50.869Z,5.79
2023-02-18T07:19:19.065Z,5.68
2023-02-18T07:21:47.528Z,5.75
2023-02-18T07:24:15.765Z,5.76
2023-02-18T07:26:43.999Z,5.83
2023-02-18T07:29:12.125Z,5.84
2023-02-18T07:31:40.629Z,5.92
2023-02-18T07:34:08.923Z,5.91
2023-02-18T07:36:40.136Z,5.98
2023-02-18T07:39:08.695Z,5.72
2023-02-18T07:41:38.658Z,6.11
2023-02-18T07:44:15.500Z,6.21
2023-02-18T07:46:43.924Z,6.40
2023-02-18T07:49:12.293Z,6.44
2023-02-18T07:51:41.124Z,6.66
2023-02-18T07:54:09.398Z,6.61
2023-02-18T07:56:38.572Z,6.31
2023-02-18T07:59:07.507Z,6.11
2023-02-18T08:01:36.088Z,6.02
2023-02-18T08:04:05.278Z,6.25
2023-02-18T08:06:41.065Z,6.16
2023-02-18T08:09:09.278Z,6.27
2023-02-18T08:11:38.870Z,6.25
2023-02-18T08:14:07.530Z,5.91
2023-02-18T08:16:35.958Z,6.16
2023-02-18T08:19:04.419Z,5.93
2023-02-18T08:21:33.037Z,6.15
2023-02-18T08:24:01.835Z,5.85
2023-02-18T08:26:30.244Z,6.08
2023-02-18T08:28:58.343Z,6.10
2023-02-18T08:31:29.877Z,5.66
2023-02-18T08:33:59.712Z,5.79
2023-02-18T08:36:29.506Z,5.84
2023-02-18T08:38:58.577Z,5.93
2023-02-18T08:41:26.808Z,6.08
2023-02-18T08:43:54.852Z,5.90
2023-02-18T08:46:24.995Z,6.18
2023-02-18T08:48:53.889Z,6.18
2023-02-18T08:51:23.610Z,6.20
2023-02-18T08:53:51.687Z,6.31
2023-02-18T08:56:21.147Z,5.92
2023-02-18T08:58:49.273Z,6.35
2023-02-18T09:01:17.706Z,6.50
2023-02-18T09:03:46.121Z,6.40
2023-02-18T09:06:14.145Z,6.12
2023-02-18T09:08:42.256Z,6.44
2023-02-18T09:11:12.163Z,6.58
2023-02-18T09:13:40.953Z,6.87
2023-02-18T09:16:21.261Z,6.57
2023-02-18T09:18:50.319Z,6.58
2023-02-18T09:21:20.889Z,6.96
2023-02-18T09:23:50.241Z,6.91
2023-02-18T09:26:23.234Z,6.98
2023-02-18T09:28:53.133Z,6.59
2023-02-18T09:31:25.210Z,7.04
2023-02-18T09:34:00.740Z,7.00
2023-02-18T09:36:29.756Z,6.98
2023-02-18T09:38:57.998Z,6.73
2023-02-18T09:41:50.326Z,7.06
2023-02-18T09:44:37.885Z,7.31
2023-02-18T09:47:16.969Z,7.40
2023-02-18T09:49:57.674Z,7.39
2023-02-18T09:52:34.018Z,7.89
2023-02-18T09:55:32.286Z,7.69
2023-02-18T09:58:06.100Z,7.47
2023-02-18T10:00:40.762Z,7.63
2023-02-18T10:03:24.504Z,7.97
2023-02-18T10:06:08.870Z,8.04
2023-02-18T10:08:44.984Z,8.18
2023-02-18T10:11:41.621Z,8.16
2023-02-18T10:14:15.318Z,8.01
2023-02-18T10:16:46.529Z,7.83
2023-02-18T10:19:28.724Z,8.10
2023-02-18T10:21:57.827Z,8.11
2023-02-18T10:24:50.870Z,7.68
2023-02-18T10:27:41.187Z,7.42
2023-02-18T10:30:31.526Z,7.40
2023-02-18T10:33:30.361Z,7.48
2023-02-18T10:36:27.091Z,7.39
2023-02-18T10:39:39.942Z,7.35
2023-02-18T10:42:30.550Z,7.39
2023-02-18T10:45:46.932Z,7.28
2023-02-18T10:48:40.046Z,7.71
2023-02-18T10:51:29.875Z,7.91
2023-02-18T10:53:58.631Z,7.96
2023-02-18T10:56:48.387Z,7.64
2023-02-18T10:59:32.691Z,7.93
2023-02-18T11:02:14.234Z,7.48
2023-02-18T11:04:46.404Z,7.59
2023-02-18T11:07:33.210Z,7.45
2023-02-18T11:10:19.552Z,7.51
2023-02-18T11:12:53.173Z,7.28
2023-02-18T11:15:27.648Z,7.09
2023-02-18T11:18:30.414Z,7.34
2023-02-18T11:21:38.747Z,7.15
2023-02-18T11:24:17.013Z,7.52
2023-02-18T11:26:45.245Z,7.69
2023-02-18T11:29:24.311Z,7.69
2023-02-18T11:31:57.301Z,8.10
2023-02-18T11:34:33.256Z,8.04
2023-02-18T11:37:21.151Z,8.35
2023-02-18T11:39:55.532Z,8.20
2023-02-18T11:42:27.175Z,8.11
2023-02-18T11:45:39.902Z,8.38
2023-02-18T11:48:43.438Z,8.12
2023-02-18T11:51:28.841Z,7.64
2023-02-18T11:54:06.750Z,7.25
2023-02-18T11:56:38.478Z,7.87
2023-02-18T11:59:18.392Z,8.18
2023-02-18T12:06:03.150Z,8.79
2023-02-18T12:09:31.903Z,8.22
2023-02-18T12:13:02.868Z,7.80
2023-02-18T12:16:02.082Z,7.52
2023-02-18T12:19:10.679Z,7.54
2023-02-18T12:22:35.948Z,7.21
2023-02-18T12:25:26.577Z,7.38
2023-02-18T12:28:15.811Z,7.67
2023-02-18T12:31:18.666Z,7.73
2023-02-18T12:34:12.952Z,7.74
2023-02-18T12:37:20.522Z,7.54
2023-02-18T12:40:16.635Z,7.53
2023-02-18T12:42:45.046Z,7.43
2023-02-18T12:45:49.912Z,7.03
2023-02-18T12:49:05.323Z,7.39
2023-02-18T12:52:05.194Z,7.22
2023-02-18T12:54:50.783Z,7.34
2023-02-18T12:57:54.028Z,7.07
2023-02-18T13:01:06.697Z,7.75
2023-02-18T13:04:13.416Z,8.00
2023-02-18T13:07:35.687Z,7.77
2023-02-18T13:10:56.354Z,7.54
2023-02-18T13:13:40.146Z,7.75
2023-02-18T13:16:16.326Z,7.51
2023-02-18T13:19:18.738Z,7.63
2023-02-18T13:21:52.086Z,7.54
2023-02-18T13:24:43.776Z,7.85
2023-02-18T13:27:22.670Z,7.93
2023-02-18T13:30:37.855Z,7.34
2023-02-18T13:33:53.422Z,7.68
2023-02-18T13:37:05.974Z,7.37
2023-02-18T13:39:35.714Z,7.63
2023-02-18T13:42:37.006Z,7.76
2023-02-18T13:45:23.535Z,7.58
2023-02-18T13:47:52.741Z,7.69
2023-02-18T13:50:30.062Z,7.41
2023-02-18T13:53:10.107Z,7.65
2023-02-18T13:56:09.646Z,7.71
2023-02-18T13:58:55.570Z,7.55
2023-02-18T14:01:45.420Z,7.84
2023-02-18T14:04:45.577Z,7.85
2023-02-18T14:07:25.551Z,7.97
2023-02-18T14:10:00.005Z,7.52
2023-02-18T14:12:42.365Z,7.69
2023-02-18T14:15:30.943Z,7.57
2023-02-18T14:18:14.125Z,7.13
2023-02-18T14:20:51.588Z,7.01
2023-02-18T14:23:19.571Z,7.29
2023-02-18T14:26:16.504Z,7.24
2023-02-18T14:28:49.167Z,7.21
2023-02-18T14:31:52.049Z,7.14
2023-02-18T14:35:06.765Z,7.09
2023-02-18T14:37:55.810Z,7.09
2023-02-18T14:41:01.651Z,7.02
2023-02-18T14:43:53.062Z,6.99
2023-02-18T14:46:33.709Z,7.01
2023-02-18T14:49:39.460Z,6.92
2023-02-18T14:52:36.949Z,6.72
2023-02-18T14:55:08.719Z,6.89
2023-02-18T14:58:04.817Z,6.88
2023-02-18T15:00:40.877Z,6.91
2023-02-18T15:03:23.040Z,6.88
2023-02-18T15:05:52.585Z,6.64
2023-02-18T15:08:26.196Z,6.69
2023-02-18T15:11:07.135Z,6.74
2023-02-18T15:13:44.527Z,6.74
2023-02-18T15:16:34.107Z,6.45
2023-02-18T15:19:19.301Z,6.71
2023-02-18T15:21:52.204Z,6.71
2023-02-18T15:24:37.458Z,6.59
2023-02-18T15:27:22.157Z,6.72
2023-02-18T15:29:57.000Z,6.41
2023-02-18T15:32:29.676Z,6.60
2023-02-18T15:35:05.243Z,6.42
2023-02-18T15:37:34.005Z,6.28
2023-02-18T15:40:02.302Z,6.44
2023-02-18T15:42:33.529Z,6.46
2023-02-18T15:45:35.713Z,6.41
2023-02-18T15:48:05.124Z,6.41
2023-02-18T15:50:38.256Z,6.38
2023-02-18T15:53:15.022Z,6.39
2023-02-18T15:55:48.694Z,6.11
2023-02-18T15:58:33.321Z,6.28
2023-02-18T16:01:08.671Z,6.17
2023-02-18T16:03:40.047Z,6.49
2023-02-18T16:06:18.213Z,6.42
2023-02-18T16:09:07.039Z,6.47
2023-02-18T16:12:02.531Z,6.49
2023-02-18T16:14:55.054Z,6.12
2023-02-18T16:17:27.011Z,6.09
2023-02-18T16:20:19.170Z,6.28
2023-02-18T16:22:53.804Z,6.16
2023-02-18T16:25:26.922Z,6.00
2023-02-18T16:27:59.807Z,5.92
2023-02-18T16:30:31.483Z,5.55
2023-02-18T16:33:01.091Z,5.80
2023-02-18T16:35:43.989Z,5.56
2023-02-18T16:38:24.692Z,5.36
2023-02-18T16:40:55.089Z,5.27
2023-02-18T16:43:29.439Z,5.09
2023-02-18T16:46:06.730Z,4.64
2023-02-18T16:48:41.385Z,4.76
2023-02-18T16:51:22.545Z,4.60
2023-02-18T16:53:51.904Z,4.60
2023-02-18T16:56:24.957Z,4.44
2023-02-18T16:58:53.636Z,4.36
2023-02-18T17:01:27.684Z,4.10
2023-02-18T17:04:00.877Z,4.14
2023-02-18T17:06:30.458Z,4.04
2023-02-18T17:08:59.621Z,3.87
2023-02-18T17:11:35.861Z,3.95
2023-02-18T17:14:06.330Z,3.85
2023-02-18T17:16:35.122Z,3.52
2023-02-18T17:19:03.931Z,3.81
2023-02-18T17:21:32.453Z,3.39
2023-02-18T17:24:00.670Z,3.85
2023-02-18T17:26:30.832Z,3.72
2023-02-18T17:29:00.959Z,3.73
2023-02-18T17:31:34.700Z,3.49
2023-02-18T17:34:08.148Z,3.58
2023-02-18T17:36:45.870Z,3.70
2023-02-18T17:39:17.744Z,3.64
2023-02-18T17:41:47.691Z,3.58
2023-02-18T17:44:25.204Z,3.47
2023-02-18T17:46:55.173Z,3.14
2023-02-18T17:49:24.153Z,3.38
2023-02-18T17:51:52.860Z,3.44
2023-02-18T17:54:23.342Z,3.15
2023-02-18T17:56:51.884Z,3.35
2023-02-18T17:59:21.040Z,3.32
2023-02-18T18:01:49.345Z,3.26
2023-02-18T18:04:19.595Z,3.08
2023-02-18T18:06:49.901Z,3.18
2023-02-18T18:09:18.389Z,3.07
2023-02-18T18:11:46.846Z,3.06
2023-02-18T18:14:15.584Z,2.53
2023-02-18T18:16:45.149Z,2.76
2023-02-18T18:19:13.313Z,3.01
2023-02-18T18:21:41.697Z,2.96
2023-02-18T18:24:13.187Z,2.66
2023-02-18T18:26:41.311Z,2.62
2023-02-18T18:29:09.490Z,2.75
2023-02-18T18:31:38.111Z,2.45
2023-02-18T18:34:06.199Z,2.76
2023-02-18T18:36:34.162Z,2.71
2023-02-18T18:39:02.997Z,2.42
2023-02-18T18:41:31.317Z,2.69
2023-02-18T18:43:59.510Z,2.69
2023-02-18T18:46:29.544Z,2.67
2023-02-18T18:48:57.670Z,2.61
2023-02-18T18:51:31.455Z,2.44
2023-02-18T18:53:59.847Z,2.59
2023-02-18T18:56:28.189Z,2.35
2023-02-18T18:58:57.159Z,2.44
2023-02-18T19:01:27.655Z,2.63
2023-02-18T19:03:55.851Z,2.70
2023-02-18T19:06:24.277Z,2.71
2023-02-18T19:08:52.543Z,2.74
2023-02-18T19:11:20.810Z,2.40
2023-02-18T19:13:49.635Z,2.70
2023-02-18T19:16:39.720Z,2.44
2023-02-18T19:19:10.969Z,2.68
2023-02-18T19:21:40.402Z,2.76
2023-02-18T19:24:09.669Z,2.69
2023-02-18T19:26:37.903Z,2.56
2023-02-18T19:29:08.810Z,2.75
2023-02-18T19:31:37.675Z,2.85
2023-02-18T19:34:05.855Z,2.68
2023-02-18T19:36:33.886Z,2.67
2023-02-18T19:39:02.478Z,2.86
2023-02-18T19:41:31.351Z,2.58
2023-02-18T19:43:59.463Z,2.85
2023-02-18T19:46:31.979Z,2.60
2023-02-18T19:48:59.998Z,2.61
2023-02-18T19:51:28.226Z,2.59
2023-02-18T19:53:56.345Z,2.79
2023-02-18T19:56:25.205Z,2.86
2023-02-18T19:58:56.663Z,2.80
2023-02-18T20:01:25.401Z,2.59
2023-02-18T20:03:53.927Z,2.81
2023-02-18T20:06:22.592Z,2.55
2023-02-18T20:08:51.707Z,2.76
2023-02-18T20:11:21.908Z,2.76
2023-02-18T20:13:50.148Z,2.79
2023-02-18T20:16:18.745Z,2.78
2023-02-18T20:18:46.936Z,2.80
2023-02-18T20:21:15.113Z,2.48
2023-02-18T20:23:43.474Z,2.80
2023-02-18T20:26:14.884Z,2.82
2023-02-18T20:28:43.128Z,2.79
2023-02-18T20:31:13.551Z,2.81
2023-02-18T20:33:42.875Z,2.80
2023-02-18T20:36:14.645Z,2.82
2023-02-18T20:38:42.833Z,2.79
2023-02-18T20:41:14.947Z,2.80
2023-02-18T20:43:43.685Z,2.67
2023-02-18T20:46:19.504Z,2.74
2023-02-18T20:48:48.494Z,2.77
2023-02-18T20:51:21.515Z,2.47
2023-02-18T20:53:50.632Z,2.66
2023-02-18T20:56:21.054Z,2.75
2023-02-18T20:59:00.038Z,2.69
2023-02-18T21:01:29.027Z,2.38
2023-02-18T21:03:57.432Z,2.69
2023-02-18T21:06:26.664Z,2.66
2023-02-18T21:08:55.178Z,2.40
2023-02-18T21:11:26.941Z,2.73
2023-02-18T21:13:57.466Z,2.69
2023-02-18T21:16:28.517Z,2.36
2023-02-18T21:18:57.294Z,2.68
2023-02-18T21:21:26.160Z,2.57
2023-02-18T21:23:54.498Z,2.63
2023-02-18T21:26:25.959Z,2.37
2023-02-18T21:28:58.610Z,2.55
2023-02-18T21:31:31.760Z,2.56
2023-02-18T21:34:01.198Z,2.66
2023-02-18T21:36:31.238Z,2.60
2023-02-18T21:39:07.228Z,2.66
2023-02-18T21:41:39.855Z,2.69
2023-02-18T21:44:10.060Z,2.35
2023-02-18T21:46:39.945Z,2.63
2023-02-18T21:49:12.954Z,2.61
2023-02-18T21:51:57.421Z,2.63
2023-02-18T21:54:48.033Z,2.62
2023-02-18T21:57:24.301Z,2.56
2023-02-18T21:59:53.610Z,2.21
2023-02-18T22:02:32.179Z,2.57
2023-02-18T22:05:09.052Z,2.58
2023-02-18T22:07:38.365Z,2.53
2023-02-18T22:10:08.089Z,2.30
2023-02-18T22:12:37.219Z,2.61
2023-02-18T22:15:06.132Z,2.45
2023-02-18T22:17:35.659Z,2.67
2023-02-18T22:20:10.092Z,2.60
2023-02-18T22:22:39.181Z,1.76
2023-02-18T22:25:08.947Z,2.35
2023-02-18T22:27:38.120Z,2.63
2023-02-18T22:30:07.437Z,2.65
2023-02-18T22:32:36.064Z,2.68
2023-02-18T22:35:05.649Z,2.63
2023-02-18T22:37:35.929Z,2.37
2023-02-18T22:40:04.751Z,2.67
2023-02-18T22:42:33.280Z,2.62
2023-02-18T22:45:03.013Z,2.68
2023-02-18T22:47:31.779Z,2.68
2023-02-18T22:50:00.462Z,2.48
2023-02-18T22:52:29.038Z,2.44
2023-02-18T22:54:57.834Z,2.71
2023-02-18T22:57:26.719Z,2.72
2023-02-18T22:59:55.357Z,2.72
2023-02-18T23:02:25.532Z,2.44
2023-02-18T23:04:54.090Z,2.73
2023-02-18T23:07:24.924Z,2.21
2023-02-18T23:09:53.787Z,2.74
2023-02-18T23:12:23.517Z,2.76
2023-02-18T23:14:53.107Z,2.75
2023-02-18T23:17:21.922Z,2.75
2023-02-18T23:19:54.687Z,2.78
2023-02-18T23:22:34.144Z,2.73
2023-02-18T23:25:03.117Z,2.73
2023-02-18T23:27:32.801Z,2.81
2023-02-18T23:30:01.467Z,2.79
2023-02-18T23:32:30.862Z,2.33
2023-02-18T23:35:00.199Z,2.76
2023-02-18T23:37:47.590Z,2.69
2023-02-18T23:40:16.852Z,2.52
2023-02-18T23:42:44.831Z,2.77
2023-02-18T23:45:13.125Z,2.79
2023-02-18T23:47:41.313Z,2.77
2023-02-18T23:50:09.549Z,2.77
2023-02-18T23:56:40.622Z,2.80
2023-02-18T23:59:10.371Z,2.75
